Aeroporto :
LOGIN :

Iscrizione | Disclaimer

   EN    FR    IT 

 










Sommario :    VFR   VFR Marginale   IFR   IFR Intensivo   IFR Molto Intensivo
Visibilità : 
Base nubi : 
>= 8 km
>= 3000ft
5 / 8 km
1000 / 3000 ft
1500m / 5 km
500 / 1000 ft
800 / 1500m
200 / 500 ft
< 800m
< 200 ft
Simboli :   Temporali  Nebbia  Neve Forte  Precipitazioni Forti  Vento > 20 kt
SIGMETs :   Varie  Temporali  Ghiacco  Turbolenza  Onda orograficha  Ceneri Vulcaniche






- Altitudine del aeroporto : 370 ft


EBBE - Beauvechain AB

ULTIMO METAR :
  • 090955Z 21012KT 9999 -DZ SCT008 BKN010 02/01 Q1004 GRN WHT TEMPO GRN

METARs OBSOLETI :
  • 090925Z 21012KT 9999 -RA SCT008 BKN010 02/01 Q1004 GRN WHT TEMPO GRN
  • 090855Z 21013KT 9999 FEW008 BKN010 02/01 Q1003 GRN WHT TEMPO GRN
  • 090839Z 21014KT 9999 FEW008 SCT010 BKN018 03/01 Q1003 GRN WHT TEMPO GRN
  • 090825Z 21014KT 9999 FEW008 SCT017 BKN020 03/01 Q1003 WHT WHT TEMPO GRN
  • 090755Z 21013KT 9999 FEW008 SCT017 BKN025 02/01 Q1003 WHT WHT TEMPO GRN
  • 090733Z 20013KT 9999 FEW012 SCT017 BKN025 02/01 Q1003 WHT WHT TEMPO GRN

TAF TAF EBBE
Valido dal 09 a 10 ore il 09 a 19 ore UTC


090841Z 0910/0919 22010G20KT 9999 FEW012 BKN025
TEMPO 0910/0913 21015G25KT 6000 -RA FEW007 BKN020
PROB30
TEMPO 0910/0913 2000 RA -RASN SCT005 BKN012
BECMG 0913/0915 FEW015 BKN025
TEMPO 0913/0919 21015G25KT FEW012 BKN020



MetMap, La meteo Aeronautica in un colpo d'occhio ! - Copyright ORBIFLY Dicembre 2007 - Disclaimer

ORBIFLY MET'MAP TEAM :

Programmazione e sviluppo : Alexandra Zaïnal
Concezione : Baudouin d'Aumeries
Aiuto per la programmazione : Marc-Olivier Méhu
Supporto tecnico e logistico : Manuel Goepfert
Aiuto per la traduzione : Arnaldo La Scala

Contatto : metmap@orbifly.com




FONTI E CREDITI :

   NOAA